Schedule Details


Flight Number: CTN391
Departure: Malpensa (LIMC) at 20:00
Arrival: Franjo Tudman (LDZA) at 21:30
Route: VAKON Q702 CHI L614 PUL P11 CRE W45 KULEN M986 KOTOR

Weather Information
LIMC 191050Z 21006KT 180V250 CAVOK 12/01 Q1021 NOSIG
LDZA 191100Z VRB02KT CAVOK 10/01 Q1020 NOSIG
Schedule Frequency

Route Map